Time;durP1;ratioP1;P1;durP2;ratioP2;P2;SDS_P1;SDS_P2;PMS_P1;PMS_P2;Temp;Humidity;BMP_temperature;BMP_pressure;BME280_temperature;BME280_humidity;BME280_pressure;Samples;Min_cycle;Max_cycle;Signal;HPM_P1;HPM_P2
2021/12/04 00:01:12;;;;;;;9.48;1.90;;;20.30;59.70;;;;;;4480057;31;20322;-82
2021/12/04 00:03:41;;;;;;;9.73;2.22;;;20.20;59.60;;;;;;4493024;31;20168;-82
2021/12/04 00:06:19;;;;;;;7.38;2.13;;;20.20;59.70;;;;;;4477807;31;20141;-82
2021/12/04 00:08:46;;;;;;;7.10;2.17;;;20.20;59.80;;;;;;4480381;31;20153;-82
2021/12/04 00:11:13;;;;;;;9.68;1.85;;;20.20;59.80;;;;;;4490007;31;20157;-82
2021/12/04 00:13:39;;;;;;;10.45;2.22;;;20.20;59.90;;;;;;4481198;31;20137;-82
2021/12/04 00:16:05;;;;;;;9.95;2.22;;;20.20;59.90;;;;;;4477948;31;20153;-82
2021/12/04 00:18:31;;;;;;;7.88;1.90;;;20.10;60.70;;;;;;4480022;31;20184;-83
2021/12/04 00:20:57;;;;;;;7.53;1.70;;;20.10;59.90;;;;;;4477803;31;20274;-83
2021/12/04 00:23:23;;;;;;;6.18;1.60;;;20.10;60.00;;;;;;4479491;31;20207;-82
2021/12/04 00:25:49;;;;;;;8.15;2.00;;;20.10;60.00;;;;;;4478656;31;20117;-82
2021/12/04 00:28:15;;;;;;;8.68;1.95;;;20.10;60.00;;;;;;4492046;31;20129;-82
2021/12/04 00:30:43;;;;;;;7.80;2.03;;;20.00;60.00;;;;;;4479992;31;20133;-82
2021/12/04 00:33:18;;;;;;;8.15;2.22;;;20.00;60.00;;;;;;4476556;31;20117;-81
2021/12/04 00:35:47;;;;;;;4.53;1.50;;;20.00;60.10;;;;;;4479301;31;20125;-81
2021/12/04 00:43:19;;;;;;;8.38;1.85;;;20.00;60.10;;;;;;4479844;32;20140;-82
2021/12/04 00:49:14;;;;;;;5.75;1.58;;;19.90;60.20;;;;;;4479773;32;20137;-82
2021/12/04 00:51:55;;;;;;;6.38;1.52;;;19.90;60.30;;;;;;4479997;32;20267;-82
2021/12/04 00:54:26;;;;;;;5.70;1.50;;;19.90;60.40;;;;;;4478449;32;20481;-81
2021/12/04 00:56:52;;;;;;;8.63;1.88;;;19.90;60.30;;;;;;4480157;32;20144;-81
2021/12/04 00:59:19;;;;;;;7.05;1.30;;;19.80;60.30;;;;;;4479214;32;20125;-82
2021/12/04 01:01:45;;;;;;;9.50;1.90;;;19.80;60.30;;;;;;4480169;32;20192;-82
2021/12/04 01:04:13;;;;;;;5.80;1.65;;;19.80;60.40;;;;;;4480349;32;20149;-82
2021/12/04 01:06:40;;;;;;;4.78;1.48;;;19.80;60.40;;;;;;4478980;32;20543;-81
2021/12/04 01:09:09;;;;;;;7.30;1.50;;;19.80;60.40;;;;;;4488392;32;20128;-82
2021/12/04 01:11:35;;;;;;;5.72;1.98;;;19.80;60.40;;;;;;4478746;32;20190;-81
2021/12/04 01:14:01;;;;;;;3.90;1.30;;;19.70;60.30;;;;;;4480954;32;20619;-82
2021/12/04 01:16:28;;;;;;;3.58;1.23;;;19.70;60.40;;;;;;4490979;32;20259;-82
2021/12/04 01:18:54;;;;;;;4.05;1.60;;;19.70;60.40;;;;;;4478796;32;20155;-83
2021/12/04 01:21:20;;;;;;;5.45;1.40;;;19.70;60.40;;;;;;4479115;32;20078;-82
2021/12/04 01:23:46;;;;;;;7.10;1.67;;;19.70;60.40;;;;;;4478623;32;20183;-83
2021/12/04 01:26:12;;;;;;;5.88;1.67;;;19.70;60.50;;;;;;4480484;32;20101;-82
2021/12/04 01:28:38;;;;;;;5.80;1.42;;;19.60;60.40;;;;;;4477148;32;20132;-81
2021/12/04 01:31:04;;;;;;;6.38;1.60;;;19.70;60.50;;;;;;4480725;32;20456;-81
2021/12/04 01:33:29;;;;;;;3.60;1.40;;;19.60;60.50;;;;;;4479512;32;20121;-81
2021/12/04 01:35:55;;;;;;;6.32;1.70;;;19.60;60.50;;;;;;4494673;31;20121;-81
2021/12/04 01:38:22;;;;;;;4.47;1.20;;;19.60;60.50;;;;;;4481996;32;20446;-81
2021/12/04 01:40:48;;;;;;;5.40;1.60;;;19.60;60.50;;;;;;4481587;32;20129;-82
2021/12/04 01:43:14;;;;;;;5.60;1.55;;;19.60;60.50;;;;;;4483144;31;20152;-81
2021/12/04 01:45:40;;;;;;;7.82;1.92;;;19.60;60.50;;;;;;4481120;32;20202;-81
2021/12/04 01:48:06;;;;;;;5.10;1.30;;;19.60;60.60;;;;;;4483436;32;20135;-82
2021/12/04 01:50:34;;;;;;;5.15;1.23;;;19.60;60.70;;;;;;4480231;32;20139;-82
2021/12/04 01:53:02;;;;;;;7.90;1.95;;;19.60;60.70;;;;;;4481768;32;20593;-82
2021/12/04 01:55:30;;;;;;;5.00;1.58;;;19.50;60.60;;;;;;4482577;32;20129;-81
2021/12/04 01:57:57;;;;;;;3.22;1.48;;;19.50;60.70;;;;;;4480378;32;20275;-81
2021/12/04 02:00:24;;;;;;;7.80;1.50;;;19.50;60.70;;;;;;4481861;32;20595;-81
2021/12/04 02:02:49;;;;;;;4.05;1.40;;;19.50;60.80;;;;;;4480976;31;20147;-81
2021/12/04 02:05:15;;;;;;;7.35;1.85;;;19.50;60.70;;;;;;4494900;31;20125;-82
2021/12/04 02:07:41;;;;;;;4.05;1.35;;;19.50;60.70;;;;;;4480072;32;20129;-81
2021/12/04 02:10:08;;;;;;;4.95;1.55;;;19.50;60.70;;;;;;4481648;32;20325;-81
2021/12/04 02:12:34;;;;;;;5.00;1.40;;;19.40;60.70;;;;;;4481295;32;20154;-81
2021/12/04 02:15:01;;;;;;;4.05;1.70;;;19.40;60.80;;;;;;4493078;31;20129;-82
2021/12/04 02:17:27;;;;;;;4.18;1.40;;;19.40;60.80;;;;;;4494767;31;20137;-81
2021/12/04 02:19:52;;;;;;;2.75;1.20;;;19.40;60.80;;;;;;4480546;32;20120;-81
2021/12/04 02:22:18;;;;;;;5.93;1.60;;;19.40;60.80;;;;;;4481654;32;20135;-81
2021/12/04 02:24:44;;;;;;;4.03;1.65;;;19.40;60.80;;;;;;4480790;31;20252;-82
2021/12/04 02:27:13;;;;;;;3.92;1.70;;;19.40;60.90;;;;;;4481556;32;20200;-83
2021/12/04 02:29:47;;;;;;;3.10;1.40;;;19.40;60.90;;;;;;4482148;32;20125;-82
2021/12/04 02:32:14;;;;;;;3.97;1.42;;;19.30;60.80;;;;;;4481054;32;20125;-82
2021/12/04 02:34:40;;;;;;;3.28;1.20;;;19.30;60.90;;;;;;4482664;32;20234;-81
2021/12/04 02:37:10;;;;;;;3.50;1.40;;;19.30;60.90;;;;;;4480274;32;20584;-81
2021/12/04 02:39:38;;;;;;;4.47;1.52;;;19.30;61.00;;;;;;4494212;31;20132;-82
2021/12/04 02:42:06;;;;;;;4.43;1.58;;;19.30;61.00;;;;;;4493132;31;20124;-81
2021/12/04 02:44:38;;;;;;;4.88;1.20;;;19.30;61.00;;;;;;4481480;32;20121;-82
2021/12/04 02:47:05;;;;;;;5.88;1.90;;;19.30;61.00;;;;;;4481957;32;20096;-81
2021/12/04 02:49:32;;;;;;;3.88;1.42;;;19.30;61.00;;;;;;4492455;31;20144;-81
2021/12/04 02:52:06;;;;;;;4.72;1.45;;;19.30;61.00;;;;;;4482436;31;20141;-81
2021/12/04 02:54:33;;;;;;;2.95;1.20;;;19.20;61.00;;;;;;4478920;32;20334;-82
2021/12/04 02:56:59;;;;;;;2.85;1.35;;;19.20;61.00;;;;;;4482191;32;20227;-83
2021/12/04 02:59:26;;;;;;;4.35;1.63;;;19.20;61.00;;;;;;4479632;31;20143;-82
2021/12/04 03:01:56;;;;;;;3.67;1.30;;;19.20;61.00;;;;;;4480336;32;20266;-81
2021/12/04 03:04:26;;;;;;;2.78;1.40;;;19.20;61.00;;;;;;4480856;32;20114;-82
2021/12/04 03:06:52;;;;;;;3.33;1.40;;;19.20;61.00;;;;;;4479045;32;20149;-81
2021/12/04 03:09:19;;;;;;;4.30;1.42;;;19.20;61.10;;;;;;4482029;32;20133;-81
2021/12/04 03:11:45;;;;;;;3.53;1.30;;;19.20;61.00;;;;;;4479046;32;20190;-81
2021/12/04 03:14:11;;;;;;;2.60;1.35;;;19.10;61.00;;;;;;4480836;32;20151;-81
2021/12/04 03:16:41;;;;;;;3.10;1.48;;;19.10;61.00;;;;;;4480592;32;20144;-81
2021/12/04 03:19:08;;;;;;;3.28;1.42;;;19.10;61.00;;;;;;4480528;32;20131;-82
2021/12/04 03:21:36;;;;;;;2.45;1.40;;;19.10;61.10;;;;;;4480689;31;20124;-83
2021/12/04 03:24:05;;;;;;;2.55;1.20;;;19.10;61.10;;;;;;4479807;31;20163;-82
2021/12/04 03:26:32;;;;;;;2.60;1.70;;;19.10;61.00;;;;;;4481771;32;20125;-81
2021/12/04 03:29:01;;;;;;;2.30;1.23;;;19.10;61.10;;;;;;4479689;32;20217;-81
2021/12/04 03:42:09;;;;;;;2.78;1.30;;;19.00;61.10;;;;;;4480230;32;20182;-81
2021/12/04 03:44:36;;;;;;;2.72;1.30;;;19.00;61.00;;;;;;4479655;32;20151;-81
2021/12/04 03:47:02;;;;;;;3.28;1.40;;;19.00;61.10;;;;;;4481091;32;20081;-82
2021/12/04 03:49:28;;;;;;;2.83;1.25;;;19.00;61.10;;;;;;4479381;32;20247;-82
2021/12/04 03:51:54;;;;;;;4.55;1.50;;;19.00;61.10;;;;;;4480548;32;20235;-82
2021/12/04 03:54:20;;;;;;;4.63;1.45;;;19.00;61.10;;;;;;4478849;31;20307;-82
2021/12/04 03:56:46;;;;;;;3.13;1.60;;;19.00;62.00;;;;;;4481039;31;20153;-82
2021/12/04 03:59:12;;;;;;;2.58;1.42;;;19.00;61.10;;;;;;4477935;31;20129;-82
2021/12/04 04:01:38;;;;;;;2.88;1.65;;;19.00;61.10;;;;;;4480054;32;20128;-82
2021/12/04 04:04:04;;;;;;;2.55;1.35;;;19.00;61.10;;;;;;4479199;31;20262;-82
2021/12/04 04:06:30;;;;;;;2.72;1.30;;;19.00;61.20;;;;;;4483186;31;20133;-82
2021/12/04 04:08:55;;;;;;;2.47;1.40;;;18.90;61.10;;;;;;4479464;31;20125;-82
2021/12/04 04:11:21;;;;;;;3.22;1.33;;;18.90;61.20;;;;;;4477582;31;20117;-81
2021/12/04 04:13:47;;;;;;;4.13;1.67;;;18.90;61.20;;;;;;4479500;31;20519;-82
2021/12/04 04:16:13;;;;;;;4.20;1.40;;;18.90;61.20;;;;;;4478917;31;20110;-82
2021/12/04 04:18:39;;;;;;;3.17;1.40;;;18.90;61.20;;;;;;4466061;32;20125;-82
2021/12/04 04:21:05;;;;;;;3.55;1.63;;;18.90;61.20;;;;;;4480069;32;20174;-82
2021/12/04 04:23:31;;;;;;;4.10;1.48;;;18.90;61.20;;;;;;4477532;31;20394;-82
2021/12/04 04:25:57;;;;;;;4.13;1.60;;;18.90;61.20;;;;;;4479296;32;20163;-82
2021/12/04 04:28:23;;;;;;;2.33;1.60;;;18.90;61.20;;;;;;4477328;32;20259;-82
2021/12/04 04:30:49;;;;;;;2.72;1.40;;;18.80;61.20;;;;;;4480357;32;20318;-82
2021/12/04 04:33:15;;;;;;;2.85;1.65;;;18.80;61.20;;;;;;4477494;31;20466;-82
2021/12/04 04:35:59;;;;;;;1.85;1.27;;;18.80;61.20;;;;;;4452923;32;20149;-81
2021/12/04 04:38:35;;;;;;;;;;;18.80;61.20;;;;;;4480005;32;20100;-82
2021/12/04 04:57:45;;;;;;;2.85;1.40;;;18.80;61.30;;;;;;4478031;32;20143;-82
2021/12/04 05:11:12;;;;;;;1.85;1.02;;;18.70;61.20;;;;;;4480985;32;20153;-81
2021/12/04 05:13:39;;;;;;;3.33;1.45;;;18.70;61.30;;;;;;4482985;32;20277;-83
2021/12/04 05:18:43;;;;;;;2.00;1.40;;;18.70;61.20;;;;;;4480764;31;20140;-82
2021/12/04 05:21:11;;;;;;;2.22;1.38;;;18.70;61.30;;;;;;4480924;31;20155;-82
2021/12/04 05:23:51;;;;;;;2.88;1.10;;;18.70;61.30;;;;;;4480468;31;20140;-82
2021/12/04 05:26:26;;;;;;;3.30;1.13;;;18.70;61.30;;;;;;4483045;31;20137;-82
2021/12/04 05:28:59;;;;;;;2.65;1.10;;;18.70;61.30;;;;;;4493538;31;20267;-82
2021/12/04 05:31:26;;;;;;;2.57;1.30;;;18.60;61.30;;;;;;4482447;32;20202;-82
2021/12/04 05:33:52;;;;;;;1.50;1.02;;;18.60;61.30;;;;;;4468724;32;20191;-82
2021/12/04 05:36:18;;;;;;;1.73;1.08;;;18.60;61.30;;;;;;4481861;32;20266;-82
2021/12/04 05:38:45;;;;;;;1.60;1.20;;;18.60;61.30;;;;;;4483395;32;20136;-82
2021/12/04 05:41:11;;;;;;;1.95;1.10;;;18.60;61.30;;;;;;4480039;32;20141;-81
2021/12/04 05:43:37;;;;;;;1.55;1.00;;;18.60;61.30;;;;;;4482376;32;20121;-82
2021/12/04 05:56:51;;;;;;;2.35;1.17;;;18.60;61.40;;;;;;4475697;31;20652;-81
2021/12/04 05:59:17;;;;;;;2.47;1.00;;;18.60;61.40;;;;;;4481860;32;20149;-81
2021/12/04 06:01:43;;;;;;;2.53;1.17;;;18.50;61.40;;;;;;4482153;31;20140;-83
2021/12/04 06:04:09;;;;;;;1.67;1.10;;;18.50;61.40;;;;;;4482764;32;20097;-83
2021/12/04 06:06:36;;;;;;;2.05;1.17;;;18.50;62.20;;;;;;4467302;32;20179;-82
2021/12/04 06:09:04;;;;;;;1.50;1.13;;;18.50;62.30;;;;;;4494970;31;20145;-82
2021/12/04 06:11:30;;;;;;;2.10;0.90;;;18.50;61.40;;;;;;4479719;32;20222;-81
2021/12/04 06:13:57;;;;;;;1.95;1.00;;;18.50;61.40;;;;;;4481709;32;20125;-82
2021/12/04 06:16:23;;;;;;;1.88;1.10;;;18.50;61.40;;;;;;4480509;32;20125;-81
2021/12/04 06:18:52;;;;;;;2.25;1.10;;;18.50;61.40;;;;;;4493974;31;20129;-81
2021/12/04 06:24:06;;;;;;;1.98;0.90;;;18.50;61.50;;;;;;4480602;31;20127;-81
2021/12/04 06:26:34;;;;;;;3.45;1.50;;;18.50;61.50;;;;;;4481744;32;20163;-81
2021/12/04 06:29:00;;;;;;;1.40;1.05;;;18.50;61.50;;;;;;4480645;32;20125;-81
2021/12/04 06:31:27;;;;;;;2.53;1.17;;;18.40;61.50;;;;;;4482263;32;20137;-81
2021/12/04 06:33:53;;;;;;;2.08;1.52;;;18.40;61.50;;;;;;4467866;32;20137;-81
2021/12/04 06:36:21;;;;;;;1.70;1.10;;;18.40;61.40;;;;;;4481385;32;20113;-81
2021/12/04 06:38:48;;;;;;;1.58;0.90;;;18.40;61.50;;;;;;4481379;32;20148;-82
2021/12/04 06:41:14;;;;;;;1.80;0.90;;;18.40;61.50;;;;;;4479378;32;20586;-81
2021/12/04 06:43:47;;;;;;;1.85;1.00;;;18.40;61.50;;;;;;4481711;31;20128;-80
2021/12/04 06:46:13;;;;;;;1.63;0.95;;;18.40;61.50;;;;;;4479943;32;20125;-82
2021/12/04 06:48:46;;;;;;;2.38;1.00;;;18.40;61.40;;;;;;4467803;32;20263;-81
2021/12/04 06:56:24;;;;;;;1.75;0.80;;;18.40;61.60;;;;;;4482458;32;20147;-73
2021/12/04 06:58:52;;;;;;;1.85;0.98;;;18.30;61.50;;;;;;4478919;32;20195;-79
2021/12/04 07:01:18;;;;;;;2.22;0.88;;;18.30;61.50;;;;;;4482007;32;20271;-79
2021/12/04 07:03:44;;;;;;;2.20;0.90;;;18.30;61.50;;;;;;4481301;32;20139;-79
2021/12/04 07:06:10;;;;;;;1.60;1.10;;;18.30;61.50;;;;;;4492832;31;20134;-79
2021/12/04 07:08:36;;;;;;;1.30;1.00;;;18.30;61.50;;;;;;4481893;31;20113;-78
2021/12/04 07:11:04;;;;;;;1.70;1.00;;;18.30;61.50;;;;;;4478165;31;20140;-79
2021/12/04 07:13:31;;;;;;;1.30;0.77;;;18.30;61.50;;;;;;4480378;31;20132;-79
2021/12/04 07:16:03;;;;;;;1.33;0.90;;;18.30;61.50;;;;;;4493536;31;20178;-79
2021/12/04 07:18:29;;;;;;;1.63;1.20;;;18.30;61.40;;;;;;4480141;31;20129;-79
2021/12/04 07:20:55;;;;;;;1.67;1.05;;;18.30;61.50;;;;;;4479386;31;20141;-79
2021/12/04 07:23:21;;;;;;;1.77;1.00;;;18.30;62.30;;;;;;4480972;31;20167;-78
2021/12/04 07:25:47;;;;;;;1.80;1.02;;;18.30;61.50;;;;;;4480324;31;20117;-79
2021/12/04 07:28:13;;;;;;;1.13;0.80;;;18.30;61.40;;;;;;4478922;31;20125;-79
2021/12/04 07:30:39;;;;;;;2.53;0.70;;;18.30;61.40;;;;;;4480849;32;20117;-79
2021/12/04 07:33:05;;;;;;;2.05;1.00;;;18.30;61.40;;;;;;4478502;31;20121;-79
2021/12/04 07:35:30;;;;;;;1.27;0.80;;;18.30;61.40;;;;;;4467593;32;20139;-79
2021/12/04 07:38:00;;;;;;;1.38;0.93;;;18.30;61.40;;;;;;4479480;32;20290;-79
2021/12/04 07:40:27;;;;;;;0.98;0.73;;;18.30;61.40;;;;;;4480239;32;20263;-78
2021/12/04 07:42:53;;;;;;;1.10;0.90;;;18.20;61.40;;;;;;4480424;32;20143;-79
2021/12/04 07:45:19;;;;;;;1.70;1.00;;;18.20;61.40;;;;;;4478449;31;20117;-79
2021/12/04 07:47:46;;;;;;;1.52;1.00;;;18.20;61.40;;;;;;4481570;32;20148;-79
2021/12/04 07:50:14;;;;;;;0.98;0.65;;;18.20;61.40;;;;;;4479416;32;20266;-80
2021/12/04 07:52:41;;;;;;;1.17;1.00;;;18.20;62.30;;;;;;4480377;32;20124;-80
2021/12/04 07:55:08;;;;;;;2.95;1.10;;;18.20;61.40;;;;;;4492241;31;20250;-80
2021/12/04 07:57:35;;;;;;;2.10;1.10;;;18.20;61.40;;;;;;4480096;32;20210;-80
2021/12/04 08:00:04;;;;;;;1.33;1.10;;;18.20;61.40;;;;;;4479943;32;20144;-72
2021/12/04 08:02:30;;;;;;;1.08;0.90;;;18.20;61.40;;;;;;4491200;31;20359;-71
2021/12/04 08:04:56;;;;;;;3.90;2.47;;;18.20;61.40;;;;;;4466954;32;20186;-70
2021/12/04 08:07:22;;;;;;;5.63;3.88;;;18.10;60.70;;;;;;4479185;32;20133;-71
2021/12/04 08:09:48;;;;;;;5.70;3.80;;;18.10;59.80;;;;;;4493122;31;20263;-83
2021/12/04 08:12:13;;;;;;;5.97;3.00;;;18.10;59.00;;;;;;4466009;32;20560;-78
2021/12/04 08:14:39;;;;;;;3.72;2.50;;;18.10;59.30;;;;;;4480031;32;20132;-82
2021/12/04 08:17:05;;;;;;;3.83;2.40;;;18.10;59.60;;;;;;4480743;32;20125;-83
2021/12/04 08:19:32;;;;;;;3.28;2.60;;;18.00;59.70;;;;;;4478029;32;20129;-85
2021/12/04 08:21:59;;;;;;;3.00;2.08;;;18.00;59.70;;;;;;4493128;31;20639;-83
2021/12/04 08:24:25;;;;;;;6.40;2.30;;;18.00;59.70;;;;;;4464926;32;20656;-80
2021/12/04 08:26:51;;;;;;;3.30;2.00;;;18.00;59.70;;;;;;4480977;32;20128;-81
2021/12/04 08:29:17;;;;;;;3.00;2.00;;;18.00;59.90;;;;;;4479485;32;20192;-81
2021/12/04 08:31:43;;;;;;;3.65;1.90;;;18.00;60.00;;;;;;4480091;32;20239;-80
2021/12/04 08:34:09;;;;;;;2.80;1.70;;;18.00;60.00;;;;;;4480647;32;20125;-83
2021/12/04 08:36:35;;;;;;;3.30;1.63;;;18.10;60.10;;;;;;4479096;32;20133;-81
2021/12/04 08:39:04;;;;;;;2.55;1.30;;;18.10;60.10;;;;;;4479720;32;20124;-83
2021/12/04 08:41:30;;;;;;;2.38;1.48;;;18.10;60.10;;;;;;4490794;31;20144;-83
2021/12/04 08:43:57;;;;;;;3.28;1.50;;;18.10;60.00;;;;;;4480245;31;20156;-78
2021/12/04 08:46:24;;;;;;;3.10;1.50;;;18.20;60.80;;;;;;4478946;32;20117;-80
2021/12/04 08:48:54;;;;;;;1.80;1.25;;;18.30;59.70;;;;;;4479274;32;20187;-78
2021/12/04 08:51:22;;;;;;;1.80;1.10;;;18.50;60.50;;;;;;4490105;32;20181;-77
2021/12/04 08:53:52;;;;;;;1.65;0.93;;;18.50;59.30;;;;;;4492975;32;20143;-78
2021/12/04 08:56:18;;;;;;;3.47;1.20;;;18.70;59.10;;;;;;4493687;32;20148;-78
2021/12/04 08:58:47;;;;;;;2.03;1.10;;;18.80;58.90;;;;;;4477201;32;20133;-79
2021/12/04 09:01:23;;;;;;;1.75;1.02;;;18.90;58.70;;;;;;4479220;32;20116;-79
2021/12/04 09:03:53;;;;;;;2.25;1.05;;;19.00;58.40;;;;;;4494337;32;20596;-82
2021/12/04 09:06:20;;;;;;;2.67;0.70;;;19.10;59.20;;;;;;4492993;32;20128;-81
2021/12/04 09:08:46;;;;;;;1.63;0.80;;;19.20;58.00;;;;;;4494901;32;20194;-75
2021/12/04 09:11:19;;;;;;;1.65;0.60;;;19.30;57.70;;;;;;4479522;32;20148;-76
2021/12/04 09:13:47;;;;;;;1.23;0.93;;;19.50;57.50;;;;;;4496416;32;20224;-79
2021/12/04 09:16:14;;;;;;;1.38;1.02;;;19.50;57.30;;;;;;4480596;32;20109;-78
2021/12/04 09:18:40;;;;;;;3.53;0.90;;;19.60;57.00;;;;;;4494615;32;20397;-79
2021/12/04 09:21:09;;;;;;;1.27;0.88;;;19.80;56.80;;;;;;4481548;32;20101;-79
2021/12/04 09:23:39;;;;;;;1.20;0.80;;;19.90;56.50;;;;;;4480609;32;20129;-81
2021/12/04 09:26:08;;;;;;;1.33;0.73;;;20.00;56.20;;;;;;4496449;32;20124;-81
2021/12/04 09:28:47;;;;;;;0.98;0.68;;;20.10;56.00;;;;;;4480464;32;20242;-79
2021/12/04 09:33:59;;;;;;;2.50;0.90;;;20.40;55.60;;;;;;4495486;32;20565;-78
2021/12/04 10:01:39;;;;;;;3.53;0.98;;;21.10;53.90;;;;;;4497007;31;20129;-76
2021/12/04 10:15:23;;;;;;;3.85;0.98;;;20.80;54.90;;;;;;4492280;31;20264;-81
2021/12/04 10:32:44;;;;;;;1.25;0.70;;;20.30;56.60;;;;;;4483168;31;20359;-79
2021/12/04 10:35:15;;;;;;;1.33;0.73;;;20.30;56.80;;;;;;4495548;31;20112;-79
2021/12/04 10:37:58;;;;;;;1.70;1.08;;;20.20;57.00;;;;;;4496149;31;20148;-76
2021/12/04 10:40:34;;;;;;;1.30;0.70;;;20.20;57.10;;;;;;4493887;31;20295;-83
2021/12/04 10:43:01;;;;;;;4.40;0.60;;;20.10;57.20;;;;;;4493902;31;20144;-81
2021/12/04 10:45:37;;;;;;;1.65;0.60;;;20.20;57.40;;;;;;4504285;31;20128;-82
2021/12/04 10:48:12;;;;;;;3.70;0.60;;;20.20;58.40;;;;;;4497695;31;20151;-83
2021/12/04 10:50:46;;;;;;;4.05;0.70;;;20.20;57.40;;;;;;4480853;31;20169;-81
2021/12/04 10:53:20;;;;;;;2.47;0.70;;;20.30;57.30;;;;;;4489805;31;20299;-78
2021/12/04 10:56:08;;;;;;;1.52;0.60;;;20.40;57.20;;;;;;4493801;31;20135;-80
2021/12/04 11:43:10;;;;;;;6.88;0.80;;;20.70;57.00;;;;;;4497400;31;20121;-85
2021/12/04 11:46:01;;;;;;;2.95;0.82;;;20.70;57.10;;;;;;4495215;31;20129;-86
2021/12/04 11:48:39;;;;;;;12.82;0.93;;;20.70;57.10;;;;;;4496573;31;20270;-83
2021/12/04 11:51:18;;;;;;;3.58;1.17;;;20.80;57.20;;;;;;4496977;31;20096;-83
2021/12/04 11:53:45;;;;;;;4.10;0.77;;;20.80;57.20;;;;;;4494044;31;20140;-78
2021/12/04 11:56:27;;;;;;;4.72;0.60;;;20.80;57.30;;;;;;4497249;31;20242;-80
2021/12/04 11:58:54;;;;;;;5.32;0.40;;;20.80;57.20;;;;;;4494394;31;20128;-77
2021/12/04 12:01:37;;;;;;;2.38;0.60;;;20.80;57.30;;;;;;4495515;31;20132;-77
2021/12/04 12:04:07;;;;;;;3.65;0.70;;;20.80;58.40;;;;;;4495927;31;20142;-79
2021/12/04 12:06:36;;;;;;;2.70;0.68;;;20.80;57.50;;;;;;4494796;31;20186;-80
2021/12/04 12:09:12;;;;;;;5.35;0.77;;;20.70;57.60;;;;;;4482810;31;20136;-72
2021/12/04 12:11:55;;;;;;;19.77;1.15;;;20.70;57.60;;;;;;4493161;31;20194;-81
2021/12/04 12:14:55;;;;;;;9.88;1.00;;;20.60;57.80;;;;;;4495604;31;20133;-79
2021/12/04 12:17:33;;;;;;;11.00;1.00;;;20.60;58.00;;;;;;4495322;31;20132;-78
2021/12/04 12:20:00;;;;;;;3.50;0.60;;;20.60;58.20;;;;;;4493069;31;20398;-80
2021/12/04 12:22:37;;;;;;;7.15;1.00;;;20.60;58.40;;;;;;4494999;31;20141;-80
2021/12/04 12:33:57;;;;;;;7.50;1.00;;;20.50;59.40;;;;;;4478099;31;20145;-81
2021/12/04 12:36:28;;;;;;;4.75;0.80;;;20.50;59.60;;;;;;4489814;31;20141;-79
2021/12/04 12:39:00;;;;;;;7.57;1.45;;;20.50;59.70;;;;;;4481288;31;20125;-80
2021/12/04 12:41:32;;;;;;;7.03;0.70;;;20.50;59.70;;;;;;4491920;31;20133;-74
2021/12/04 12:44:06;;;;;;;4.57;0.80;;;20.50;59.60;;;;;;4479343;32;20259;-78
2021/12/04 12:47:03;;;;;;;6.95;1.10;;;20.50;59.70;;;;;;4479909;31;20184;-82
2021/12/04 12:49:43;;;;;;;6.65;0.93;;;20.40;59.70;;;;;;4451833;32;20549;-78
2021/12/04 12:52:15;;;;;;;4.40;0.82;;;20.40;59.90;;;;;;4480071;32;20491;-79
2021/12/04 12:55:03;;;;;;;5.75;1.00;;;20.40;59.90;;;;;;4478145;32;20153;-73
2021/12/04 12:57:41;;;;;;;3.00;0.77;;;20.40;59.90;;;;;;4479376;32;20602;-75
2021/12/04 13:14:15;;;;;;;1.85;0.77;;;20.40;60.00;;;;;;4496167;32;20829;-76
2021/12/04 13:16:59;;;;;;;5.53;0.82;;;20.40;60.00;;;;;;4495947;32;20085;-78
2021/12/04 13:19:26;;;;;;;4.35;0.77;;;20.40;60.00;;;;;;4494520;32;20239;-77
2021/12/04 13:21:55;;;;;;;10.30;1.17;;;20.40;60.00;;;;;;4495095;32;20163;-78
2021/12/04 13:24:31;;;;;;;2.42;0.95;;;20.40;60.00;;;;;;4493205;32;20648;-79
2021/12/04 13:29:47;;;;;;;2.55;0.80;;;20.40;60.10;;;;;;4485257;31;20263;-74
2021/12/04 13:32:15;;;;;;;5.05;0.82;;;20.40;60.20;;;;;;4497303;31;20187;-73
2021/12/04 13:34:43;;;;;;;1.80;0.70;;;20.40;60.20;;;;;;4485564;31;20210;-73
2021/12/04 13:37:10;;;;;;;7.25;0.90;;;20.40;60.10;;;;;;4494617;31;20143;-75
2021/12/04 13:39:39;;;;;;;3.65;1.02;;;20.40;60.10;;;;;;4497912;31;20602;-70
2021/12/04 13:42:05;;;;;;;3.83;0.88;;;20.40;60.20;;;;;;4498119;31;20128;-76
2021/12/04 13:44:33;;;;;;;4.80;1.13;;;20.40;60.20;;;;;;4496660;31;20183;-75
2021/12/04 13:47:08;;;;;;;3.75;1.08;;;20.40;60.20;;;;;;4497731;31;20128;-76
2021/12/04 13:49:36;;;;;;;4.15;0.98;;;20.40;60.10;;;;;;4494947;31;20129;-73
2021/12/04 13:52:11;;;;;;;2.92;1.40;;;20.40;60.00;;;;;;4498794;31;20140;-75
2021/12/04 13:54:55;;;;;;;3.22;1.38;;;20.40;59.60;;;;;;4496319;31;20129;-71
2021/12/04 13:57:22;;;;;;;2.53;1.10;;;20.40;59.40;;;;;;4497715;31;20152;-72
2021/12/04 13:59:47;;;;;;;4.85;1.13;;;20.30;59.20;;;;;;4468207;31;30940;-71
2021/12/04 14:02:22;;;;;;;5.72;1.30;;;20.30;60.00;;;;;;4459592;31;20230;-72
2021/12/04 14:05:01;;;;;;;6.07;1.80;;;20.30;59.10;;;;;;4498613;31;20341;-72
2021/12/04 14:07:27;;;;;;;4.53;2.22;;;20.30;58.80;;;;;;4497194;31;20136;-73
2021/12/04 14:09:53;;;;;;;4.63;2.33;;;20.30;58.50;;;;;;4496812;31;20136;-72
2021/12/04 14:12:19;;;;;;;2.97;2.30;;;20.20;57.90;;;;;;4498266;31;20136;-73
2021/12/04 14:14:46;;;;;;;4.00;2.30;;;20.20;57.70;;;;;;4470726;31;20133;-71
2021/12/04 14:17:14;;;;;;;6.47;2.42;;;20.30;57.80;;;;;;4474061;31;20317;-71
2021/12/04 14:19:41;;;;;;;3.92;2.20;;;20.30;58.00;;;;;;4490922;31;20135;-72
2021/12/04 14:22:17;;;;;;;8.88;1.88;;;20.30;58.10;;;;;;4481195;31;20121;-71
2021/12/04 14:24:56;;;;;;;3.95;1.92;;;20.30;58.20;;;;;;4481279;31;20494;-71
2021/12/04 14:27:25;;;;;;;4.95;1.80;;;20.30;58.50;;;;;;4481392;32;20132;-71
2021/12/04 14:29:58;;;;;;;6.00;1.90;;;20.30;58.70;;;;;;4482429;32;20141;-71
2021/12/04 14:32:31;;;;;;;7.83;1.80;;;20.30;58.80;;;;;;4480642;32;20137;-75
2021/12/04 14:35:17;;;;;;;3.40;1.52;;;20.30;58.90;;;;;;4481425;32;20129;-72
2021/12/04 14:37:51;;;;;;;10.70;1.63;;;20.30;58.90;;;;;;4481277;32;20180;-69
2021/12/04 14:40:22;;;;;;;13.82;1.67;;;20.30;59.00;;;;;;4486468;31;20590;-69
2021/12/04 14:42:49;;;;;;;2.38;1.60;;;20.40;60.20;;;;;;4496816;31;20233;-70
2021/12/04 14:45:20;;;;;;;10.98;1.92;;;20.40;59.50;;;;;;4495370;31;20148;-72
2021/12/04 14:47:54;;;;;;;4.15;1.70;;;20.40;59.80;;;;;;4497512;31;20125;-73
2021/12/04 14:50:21;;;;;;;4.55;1.60;;;20.40;59.90;;;;;;4496718;31;20135;-73
2021/12/04 14:52:53;;;;;;;2.92;1.67;;;20.40;60.70;;;;;;4496062;31;20317;-73
2021/12/04 14:55:27;;;;;;;2.97;1.63;;;20.40;59.70;;;;;;4497878;31;20073;-70
2021/12/04 14:57:55;;;;;;;5.15;1.70;;;20.40;59.70;;;;;;4495923;31;20151;-72
2021/12/04 15:00:31;;;;;;;5.18;2.00;;;20.40;59.90;;;;;;4483748;31;20129;-72
2021/12/04 15:03:02;;;;;;;4.20;1.80;;;20.40;59.90;;;;;;4495812;31;20139;-72
2021/12/04 15:05:33;;;;;;;4.57;1.52;;;20.40;60.10;;;;;;4497534;31;20156;-73
2021/12/04 15:08:04;;;;;;;3.03;2.00;;;20.40;60.30;;;;;;4483330;31;20270;-73
2021/12/04 15:10:30;;;;;;;4.78;2.60;;;20.40;60.50;;;;;;4496141;31;20168;-72
2021/12/04 15:12:59;;;;;;;4.63;1.70;;;20.40;60.50;;;;;;4496218;31;20168;-73
2021/12/04 15:15:30;;;;;;;4.28;1.98;;;20.40;60.50;;;;;;4495281;31;20140;-74
2021/12/04 15:17:59;;;;;;;3.70;1.80;;;20.40;60.50;;;;;;4483419;31;20190;-71
2021/12/04 15:20:31;;;;;;;5.95;2.08;;;20.40;60.40;;;;;;4487176;31;20132;-71
2021/12/04 15:23:01;;;;;;;5.60;1.63;;;20.40;60.50;;;;;;4479738;32;20133;-71
2021/12/04 15:25:32;;;;;;;8.88;2.03;;;20.40;60.50;;;;;;4467674;32;20152;-71
2021/12/04 15:27:58;;;;;;;9.32;1.73;;;20.40;60.60;;;;;;4479678;32;20164;-71
2021/12/04 15:30:25;;;;;;;10.48;1.77;;;20.40;60.80;;;;;;4480605;32;20128;-71
2021/12/04 15:32:52;;;;;;;3.80;1.63;;;20.40;60.80;;;;;;4479503;32;20260;-73
2021/12/04 15:35:37;;;;;;;6.50;1.73;;;20.50;60.90;;;;;;4481612;32;20198;-72
2021/12/04 15:38:08;;;;;;;3.85;1.67;;;20.40;60.90;;;;;;4481080;32;20127;-74
2021/12/04 15:41:13;;;;;;;4.95;1.90;;;20.50;61.00;;;;;;4479812;31;20259;-72
2021/12/04 15:54:31;;;;;;;5.10;1.98;;;20.20;61.00;;;;;;4483444;31;20184;-84
2021/12/04 15:56:57;;;;;;;9.77;2.30;;;20.20;61.10;;;;;;4480440;31;20117;-79
2021/12/04 15:59:27;;;;;;;3.63;2.13;;;20.20;61.00;;;;;;4479235;31;20125;-79
2021/12/04 16:01:58;;;;;;;4.22;1.92;;;20.10;61.00;;;;;;4478985;31;20131;-76
2021/12/04 16:04:27;;;;;;;5.18;1.95;;;20.10;61.10;;;;;;4480924;31;20144;-81
2021/12/04 16:06:55;;;;;;;2.92;1.75;;;20.10;61.10;;;;;;4477552;31;20121;-77
2021/12/04 16:09:26;;;;;;;2.67;1.77;;;20.10;61.10;;;;;;4480555;31;20147;-75
2021/12/04 16:12:00;;;;;;;6.13;1.90;;;20.10;61.20;;;;;;4479263;31;20143;-75
2021/12/04 16:14:50;;;;;;;7.10;2.00;;;20.10;61.20;;;;;;4493741;31;20172;-74
2021/12/04 16:17:16;;;;;;;4.05;2.13;;;20.10;61.10;;;;;;4486059;31;20125;-75
2021/12/04 16:19:46;;;;;;;2.25;1.42;;;20.20;61.10;;;;;;4483090;31;20171;-76
2021/12/04 16:22:13;;;;;;;3.53;1.90;;;20.20;60.90;;;;;;4484036;31;20576;-73